Fort Carson, Colorado
Current Conditions -  °F | °C
As of 7:58 PM on Wednesday 22 Oct 2014 (Local Time) from KFCS Reporting Station
Broken Clouds Broken Clouds  
Wind Chill: 58°   Ceiling: 11000
Heat Index: 58°   Visibility: 10mi
Dew Point: 41°   Wind: 5mph
Humidity: 53%   Direction: 40°NE
Pressure: 30.16"   Gusts: NA
Location:  38.74°N, 104.77°W
Report Text: KFCS 230158Z AUTO 04004KT 10SM BKN110 14/05 A3016 RMK AO2 SLP196 P0001 T01440050
Loading
Personal Weather Stations






























Interactive Weather Map
Tropical Storm Tracking
New forecast layout! Learn more

10-Day Weather Forecast

Advertisements
Track Severe Weather on mobile